createdAt,value
2023-01-19T00:01:37.132Z,8.90
2023-01-19T00:04:06.599Z,8.90
2023-01-19T00:06:35.285Z,8.37
2023-01-19T00:09:04.323Z,10.10
2023-01-19T00:11:32.658Z,7.80
2023-01-19T00:14:04.990Z,8.53
2023-01-19T00:16:33.108Z,8.33
2023-01-19T00:19:04.754Z,9.20
2023-01-19T00:21:33.486Z,9.10
2023-01-19T00:24:01.748Z,8.27
2023-01-19T00:26:30.065Z,7.60
2023-01-19T00:28:58.089Z,8.00
2023-01-19T00:31:29.977Z,7.90
2023-01-19T00:33:58.416Z,7.90
2023-01-19T00:36:26.885Z,8.60
2023-01-19T00:38:58.857Z,8.50
2023-01-19T00:41:40.919Z,8.00
2023-01-19T00:44:09.101Z,8.10
2023-01-19T00:46:38.987Z,7.60
2023-01-19T00:49:07.481Z,7.20
2023-01-19T00:51:38.553Z,7.37
2023-01-19T00:54:10.224Z,7.80
2023-01-19T00:56:39.071Z,7.57
2023-01-19T00:59:07.417Z,7.73
2023-01-19T01:01:45.361Z,7.90
2023-01-19T01:04:16.057Z,8.43
2023-01-19T01:06:46.997Z,6.70
2023-01-19T01:09:15.070Z,7.20
2023-01-19T01:11:45.494Z,7.40
2023-01-19T01:14:16.328Z,8.47
2023-01-19T01:16:45.074Z,7.90
2023-01-19T01:19:13.086Z,8.20
2023-01-19T01:21:45.517Z,7.87
2023-01-19T01:24:13.966Z,8.53
2023-01-19T01:26:42.259Z,8.13
2023-01-19T01:29:10.383Z,7.40
2023-01-19T01:31:38.703Z,7.23
2023-01-19T01:34:07.837Z,7.50
2023-01-19T01:36:36.352Z,8.53
2023-01-19T01:39:06.344Z,6.90
2023-01-19T01:41:34.626Z,7.20
2023-01-19T01:44:06.356Z,7.43
2023-01-19T01:46:34.547Z,7.67
2023-01-19T01:49:06.622Z,7.73
2023-01-19T01:51:38.632Z,6.03
2023-01-19T01:54:14.804Z,6.87
2023-01-19T01:56:47.542Z,5.40
2023-01-19T01:59:27.959Z,8.27
2023-01-19T02:02:24.018Z,7.57
2023-01-19T02:04:56.392Z,6.50
2023-01-19T02:07:48.928Z,8.10
2023-01-19T02:10:36.533Z,7.40
2023-01-19T02:13:24.269Z,6.70
2023-01-19T02:15:59.898Z,6.47
2023-01-19T02:18:29.674Z,6.90
2023-01-19T02:21:08.446Z,7.73
2023-01-19T02:23:43.934Z,7.87
2023-01-19T02:26:17.316Z,7.53
2023-01-19T02:28:49.364Z,7.67
2023-01-19T02:31:19.638Z,7.20
2023-01-19T02:33:47.842Z,10.80
2023-01-19T02:36:18.161Z,6.73
2023-01-19T02:38:50.040Z,7.77
2023-01-19T02:41:23.600Z,7.90
2023-01-19T02:43:52.261Z,7.83
2023-01-19T02:46:22.685Z,8.50
2023-01-19T02:48:50.735Z,6.53
2023-01-19T02:51:22.481Z,6.87
2023-01-19T02:54:33.068Z,6.50
2023-01-19T02:57:25.901Z,7.37
2023-01-19T03:00:05.252Z,7.80
2023-01-19T03:02:48.723Z,7.67
2023-01-19T03:05:27.568Z,6.37
2023-01-19T03:08:05.035Z,6.93
2023-01-19T03:10:43.369Z,7.47
2023-01-19T03:13:22.288Z,7.60
2023-01-19T03:15:54.358Z,6.20
2023-01-19T03:18:33.223Z,6.80
2023-01-19T03:21:06.759Z,7.17
2023-01-19T03:23:38.130Z,6.83
2023-01-19T03:26:12.512Z,7.17
2023-01-19T03:28:43.725Z,7.00
2023-01-19T03:31:17.445Z,6.60
2023-01-19T03:33:51.500Z,6.63
2023-01-19T03:36:28.538Z,6.40
2023-01-19T03:38:59.125Z,5.97
2023-01-19T03:41:32.153Z,6.13
2023-01-19T03:44:01.190Z,6.33
2023-01-19T03:46:33.039Z,6.90
2023-01-19T03:49:02.271Z,6.10
2023-01-19T03:51:32.151Z,6.90
2023-01-19T03:54:19.912Z,5.77
2023-01-19T03:56:52.413Z,6.27
2023-01-19T03:59:21.761Z,6.70
2023-01-19T04:01:50.597Z,6.53
2023-01-19T04:04:18.724Z,6.97
2023-01-19T04:06:47.058Z,7.47
2023-01-19T04:09:15.379Z,6.77
2023-01-19T04:11:46.315Z,6.40
2023-01-19T04:14:19.156Z,6.30
2023-01-19T04:16:47.339Z,6.60
2023-01-19T04:19:16.150Z,6.43
2023-01-19T04:21:44.399Z,7.40
2023-01-19T04:24:14.846Z,7.87
2023-01-19T04:26:44.206Z,6.73
2023-01-19T04:29:14.105Z,7.20
2023-01-19T04:31:46.666Z,7.20
2023-01-19T04:34:14.591Z,6.27
2023-01-19T04:36:42.627Z,6.77
2023-01-19T04:39:11.711Z,6.57
2023-01-19T04:41:41.999Z,7.10
2023-01-19T04:44:10.406Z,6.60
2023-01-19T04:46:38.896Z,5.90
2023-01-19T04:49:08.258Z,7.40
2023-01-19T04:51:36.786Z,6.30
2023-01-19T04:54:09.049Z,7.20
2023-01-19T04:56:41.001Z,5.70
2023-01-19T04:59:09.117Z,7.50
2023-01-19T05:01:37.916Z,7.20
2023-01-19T05:04:07.154Z,6.50
2023-01-19T05:06:37.823Z,6.93
2023-01-19T05:09:13.075Z,7.37
2023-01-19T05:11:41.118Z,6.53
2023-01-19T05:14:09.243Z,6.43
2023-01-19T05:16:39.508Z,6.60
2023-01-19T05:19:07.714Z,6.63
2023-01-19T05:21:40.976Z,6.97
2023-01-19T05:24:11.411Z,7.00
2023-01-19T05:26:39.631Z,6.40
2023-01-19T05:29:08.806Z,6.43
2023-01-19T05:31:39.779Z,7.80
2023-01-19T05:34:07.877Z,6.67
2023-01-19T05:36:35.968Z,6.43
2023-01-19T05:39:07.106Z,7.60
2023-01-19T05:41:35.903Z,7.30
2023-01-19T05:44:07.856Z,7.73
2023-01-19T05:46:39.354Z,6.87
2023-01-19T05:49:08.350Z,7.87
2023-01-19T05:51:40.382Z,5.73
2023-01-19T05:54:11.443Z,6.80
2023-01-19T05:56:40.486Z,7.83
2023-01-19T05:59:09.205Z,7.63
2023-01-19T06:01:39.928Z,7.67
2023-01-19T06:04:10.894Z,7.50
2023-01-19T06:06:39.250Z,7.80
2023-01-19T06:09:07.847Z,7.80
2023-01-19T06:11:37.813Z,8.27
2023-01-19T06:14:06.309Z,7.20
2023-01-19T06:16:34.952Z,8.13
2023-01-19T06:19:03.458Z,8.00
2023-01-19T06:21:32.285Z,6.63
2023-01-19T06:24:01.310Z,8.53
2023-01-19T06:26:29.485Z,9.03
2023-01-19T06:28:58.904Z,7.67
2023-01-19T06:31:29.179Z,8.80
2023-01-19T06:33:57.291Z,8.07
2023-01-19T06:36:25.533Z,8.67
2023-01-19T06:38:54.317Z,8.20
2023-01-19T06:41:22.694Z,8.40
2023-01-19T06:43:51.196Z,7.90
2023-01-19T06:46:20.431Z,7.80
2023-01-19T06:48:49.848Z,8.03
2023-01-19T06:51:18.872Z,9.53
2023-01-19T06:53:46.790Z,8.43
2023-01-19T06:56:16.755Z,8.70
2023-01-19T06:58:45.026Z,9.50
2023-01-19T07:01:13.198Z,8.17
2023-01-19T07:03:42.606Z,8.50
2023-01-19T07:06:11.013Z,8.77
2023-01-19T07:08:39.883Z,9.37
2023-01-19T07:11:24.892Z,8.33
2023-01-19T07:13:58.160Z,7.80
2023-01-19T07:16:26.646Z,6.93
2023-01-19T07:18:56.642Z,8.80
2023-01-19T07:21:29.080Z,8.20
2023-01-19T07:23:57.809Z,8.93
2023-01-19T07:26:25.865Z,8.50
2023-01-19T07:28:54.193Z,8.33
2023-01-19T07:31:22.527Z,8.50
2023-01-19T07:33:50.506Z,8.77
2023-01-19T07:36:22.261Z,8.53
2023-01-19T07:38:51.944Z,7.23
2023-01-19T07:41:20.399Z,7.77
2023-01-19T07:43:51.520Z,7.90
2023-01-19T07:46:21.903Z,7.93
2023-01-19T07:48:51.279Z,7.30
2023-01-19T07:51:19.256Z,8.60
2023-01-19T07:53:51.626Z,8.90
2023-01-19T07:56:24.840Z,9.03
2023-01-19T07:58:53.405Z,8.07
2023-01-19T08:01:24.138Z,8.37
2023-01-19T08:03:52.339Z,8.73
2023-01-19T08:06:23.265Z,7.67
2023-01-19T08:08:56.077Z,7.67
2023-01-19T08:11:24.106Z,8.40
2023-01-19T08:13:53.448Z,8.37
2023-01-19T08:16:21.528Z,8.63
2023-01-19T08:18:51.275Z,7.93
2023-01-19T08:21:19.881Z,8.27
2023-01-19T08:23:55.477Z,7.27
2023-01-19T08:26:30.037Z,6.60
2023-01-19T08:29:02.321Z,7.93
2023-01-19T08:31:30.572Z,7.63
2023-01-19T08:33:59.144Z,7.63
2023-01-19T08:36:29.403Z,7.57
2023-01-19T08:38:58.972Z,7.27
2023-01-19T08:41:29.805Z,7.10
2023-01-19T08:43:57.700Z,6.30
2023-01-19T08:46:25.751Z,7.73
2023-01-19T08:48:55.353Z,7.37
2023-01-19T08:51:24.235Z,7.00
2023-01-19T08:53:52.540Z,6.43
2023-01-19T08:56:22.416Z,6.97
2023-01-19T08:59:07.374Z,7.40
2023-01-19T09:01:38.298Z,7.87
2023-01-19T09:04:07.257Z,7.10
2023-01-19T09:06:35.414Z,7.03
2023-01-19T09:09:04.028Z,7.50
2023-01-19T09:11:35.436Z,6.40
2023-01-19T09:14:05.719Z,7.40
2023-01-19T09:16:38.799Z,7.50
2023-01-19T09:19:08.600Z,6.87
2023-01-19T09:21:39.128Z,6.97
2023-01-19T09:24:08.879Z,6.57
2023-01-19T09:26:40.563Z,7.30
2023-01-19T09:29:08.567Z,7.20
2023-01-19T09:31:40.165Z,6.97
2023-01-19T09:34:08.487Z,6.77
2023-01-19T09:36:40.005Z,6.67
2023-01-19T09:39:08.176Z,6.43
2023-01-19T09:41:41.137Z,6.80
2023-01-19T09:44:18.855Z,7.00
2023-01-19T09:46:47.408Z,7.47
2023-01-19T09:49:17.710Z,5.93
2023-01-19T09:51:53.420Z,6.60
2023-01-19T09:54:28.518Z,6.13
2023-01-19T09:57:08.099Z,5.30
2023-01-19T09:59:37.095Z,6.50
2023-01-19T10:02:16.584Z,5.77
2023-01-19T10:04:51.737Z,5.43
2023-01-19T10:07:38.726Z,6.73
2023-01-19T10:10:20.371Z,5.90
2023-01-19T10:13:11.566Z,6.40
2023-01-19T10:15:52.613Z,6.60
2023-01-19T10:18:31.277Z,6.00
2023-01-19T10:21:06.001Z,6.60
2023-01-19T10:23:42.811Z,6.73
2023-01-19T10:26:16.479Z,7.13
2023-01-19T10:28:53.548Z,6.30
2023-01-19T10:31:25.567Z,6.20
2023-01-19T10:33:56.991Z,5.83
2023-01-19T10:36:30.505Z,5.87
2023-01-19T10:39:00.371Z,5.50
2023-01-19T10:41:39.564Z,5.10
2023-01-19T10:44:10.835Z,5.30
2023-01-19T10:46:44.667Z,4.90
2023-01-19T10:49:26.938Z,5.13
2023-01-19T10:51:56.859Z,5.83
2023-01-19T10:54:26.819Z,6.10
2023-01-19T10:56:59.320Z,7.20
2023-01-19T10:59:38.623Z,6.17
2023-01-19T11:02:21.327Z,7.03
2023-01-19T11:04:54.102Z,6.47
2023-01-19T11:07:24.014Z,5.73
2023-01-19T11:10:15.082Z,5.63
2023-01-19T11:12:45.689Z,6.20
2023-01-19T11:15:17.963Z,6.03
2023-01-19T11:17:49.478Z,5.43
2023-01-19T11:20:22.569Z,5.60
2023-01-19T11:23:06.244Z,6.30
2023-01-19T11:25:37.974Z,5.57
2023-01-19T11:28:07.903Z,5.07
2023-01-19T11:30:37.331Z,5.30
2023-01-19T11:33:26.502Z,6.87
2023-01-19T11:36:04.531Z,6.23
2023-01-19T11:38:43.451Z,5.90
2023-01-19T11:41:21.423Z,6.10
2023-01-19T11:43:56.649Z,6.37
2023-01-19T11:46:29.619Z,6.10
2023-01-19T11:49:03.159Z,5.50
2023-01-19T11:51:41.134Z,5.80
2023-01-19T11:54:19.344Z,6.83
2023-01-19T11:56:52.063Z,5.70
2023-01-19T11:59:23.133Z,7.40
2023-01-19T12:01:57.479Z,5.70
2023-01-19T12:04:46.696Z,5.60
2023-01-19T12:07:23.527Z,6.20
2023-01-19T12:09:56.467Z,5.77
2023-01-19T12:12:30.746Z,6.17
2023-01-19T12:15:05.211Z,5.23
2023-01-19T12:17:38.711Z,6.90
2023-01-19T12:20:15.319Z,6.80
2023-01-19T12:22:52.634Z,6.40
2023-01-19T12:25:23.943Z,6.73
2023-01-19T12:27:54.914Z,6.00
2023-01-19T12:30:26.413Z,6.30
2023-01-19T12:33:23.136Z,5.97
2023-01-19T12:36:01.040Z,5.80
2023-01-19T12:38:43.173Z,6.77
2023-01-19T12:41:20.779Z,7.20
2023-01-19T12:43:52.194Z,6.30
2023-01-19T12:46:23.615Z,5.30
2023-01-19T12:48:53.753Z,5.50
2023-01-19T12:51:25.288Z,5.90
2023-01-19T12:53:55.733Z,6.10
2023-01-19T12:56:31.047Z,5.93
2023-01-19T12:59:00.087Z,5.40
2023-01-19T13:01:28.654Z,5.53
2023-01-19T13:04:08.246Z,6.00
2023-01-19T13:07:13.814Z,6.20
2023-01-19T13:09:43.120Z,6.20
2023-01-19T13:12:25.638Z,5.40
2023-01-19T13:15:29.242Z,5.63
2023-01-19T13:17:57.788Z,4.63
2023-01-19T13:20:45.615Z,5.60
2023-01-19T13:23:24.352Z,6.87
2023-01-19T13:25:56.253Z,6.90
2023-01-19T13:28:34.100Z,6.13
2023-01-19T13:31:06.866Z,5.70
2023-01-19T13:33:52.182Z,5.90
2023-01-19T13:36:30.939Z,5.87
2023-01-19T13:39:05.233Z,6.17
2023-01-19T13:41:39.571Z,5.73
2023-01-19T13:44:11.324Z,5.97
2023-01-19T13:46:41.807Z,6.60
2023-01-19T13:49:22.743Z,6.37
2023-01-19T13:52:18.047Z,6.00
2023-01-19T13:54:50.281Z,5.97
2023-01-19T13:57:29.830Z,7.00
2023-01-19T14:00:18.641Z,6.30
2023-01-19T14:02:59.248Z,6.83
2023-01-19T14:05:30.138Z,6.77
2023-01-19T14:08:13.080Z,6.70
2023-01-19T14:10:44.590Z,7.03
2023-01-19T14:13:19.802Z,7.07
2023-01-19T14:15:49.837Z,6.50
2023-01-19T14:18:28.524Z,5.37
2023-01-19T14:21:01.257Z,6.70
2023-01-19T14:23:47.134Z,6.20
2023-01-19T14:26:56.631Z,7.83
2023-01-19T14:29:29.629Z,8.50
2023-01-19T14:32:15.047Z,7.57
2023-01-19T14:34:45.512Z,7.97
2023-01-19T14:37:35.031Z,8.70
2023-01-19T14:40:18.403Z,7.33
2023-01-19T14:42:53.909Z,7.63
2023-01-19T14:45:27.493Z,6.93
2023-01-19T14:47:58.499Z,7.87
2023-01-19T14:50:30.842Z,7.60
2023-01-19T14:53:06.166Z,8.20
2023-01-19T14:55:39.789Z,8.27
2023-01-19T14:58:13.434Z,8.60
2023-01-19T15:00:41.680Z,9.07
2023-01-19T15:03:11.048Z,9.33
2023-01-19T15:05:40.467Z,8.63
2023-01-19T15:08:12.353Z,8.90
2023-01-19T15:10:42.075Z,9.07
2023-01-19T15:13:16.994Z,8.03
2023-01-19T15:15:45.343Z,8.77
2023-01-19T15:18:17.810Z,7.90
2023-01-19T15:20:46.083Z,10.30
2023-01-19T15:23:16.559Z,8.80
2023-01-19T15:25:46.959Z,9.40
2023-01-19T15:28:20.464Z,8.40
2023-01-19T15:30:51.231Z,8.83
2023-01-19T15:33:22.043Z,8.00
2023-01-19T15:35:50.513Z,7.97
2023-01-19T15:38:19.278Z,7.93
2023-01-19T15:40:52.408Z,8.67
2023-01-19T15:43:22.109Z,8.40
2023-01-19T15:45:55.962Z,9.23
2023-01-19T15:48:24.105Z,9.00
2023-01-19T15:50:52.743Z,8.63
2023-01-19T15:53:23.965Z,7.70
2023-01-19T15:55:56.963Z,8.00
2023-01-19T15:58:25.636Z,7.10
2023-01-19T16:00:58.287Z,8.70
2023-01-19T16:03:27.669Z,8.37
2023-01-19T16:05:56.725Z,8.80
2023-01-19T16:08:26.428Z,7.47
2023-01-19T16:10:56.188Z,8.63
2023-01-19T16:13:24.812Z,8.50
2023-01-19T16:15:53.252Z,8.50
2023-01-19T16:18:23.772Z,8.97
2023-01-19T16:20:51.798Z,8.87
2023-01-19T16:23:19.694Z,7.97
2023-01-19T16:25:58.613Z,8.13
2023-01-19T16:28:27.303Z,9.33
2023-01-19T16:30:55.451Z,9.10
2023-01-19T16:33:24.211Z,9.17
2023-01-19T16:35:52.588Z,8.40
2023-01-19T16:38:23.534Z,8.40
2023-01-19T16:40:52.909Z,9.00
2023-01-19T16:43:26.868Z,8.80
2023-01-19T16:46:00.067Z,7.70
2023-01-19T16:48:28.755Z,9.53
2023-01-19T16:51:03.078Z,8.40
2023-01-19T16:53:32.146Z,8.30
2023-01-19T16:56:00.636Z,8.93
2023-01-19T16:58:30.203Z,9.40
2023-01-19T17:01:08.001Z,10.00
2023-01-19T17:03:37.912Z,9.43
2023-01-19T17:06:06.604Z,9.10
2023-01-19T17:08:34.789Z,8.30
2023-01-19T17:11:09.456Z,9.50
2023-01-19T17:13:39.928Z,8.93
2023-01-19T17:16:08.548Z,9.10
2023-01-19T17:18:38.827Z,8.90
2023-01-19T17:21:09.283Z,9.27
2023-01-19T17:23:38.966Z,8.20
2023-01-19T17:26:10.249Z,8.53
2023-01-19T17:28:42.249Z,8.80
2023-01-19T17:31:12.676Z,7.80
2023-01-19T17:33:41.777Z,9.00
2023-01-19T17:36:14.477Z,8.70
2023-01-19T17:38:43.063Z,7.47
2023-01-19T17:41:14.813Z,7.87
2023-01-19T17:43:46.415Z,8.37
2023-01-19T17:46:15.270Z,7.70
2023-01-19T17:48:43.992Z,7.37
2023-01-19T17:51:14.497Z,9.40
2023-01-19T17:53:45.686Z,7.27
2023-01-19T17:56:21.492Z,8.03
2023-01-19T17:58:50.970Z,8.53
2023-01-19T18:01:22.430Z,7.70
2023-01-19T18:03:50.915Z,6.43
2023-01-19T18:06:20.070Z,6.60
2023-01-19T18:08:50.096Z,7.37
2023-01-19T18:11:20.562Z,7.83
2023-01-19T18:13:51.630Z,7.77
2023-01-19T18:16:23.416Z,7.17
2023-01-19T18:18:53.534Z,7.63
2023-01-19T18:21:23.995Z,7.10
2023-01-19T18:23:53.378Z,6.60
2023-01-19T18:26:23.852Z,7.10
2023-01-19T18:28:56.463Z,8.07
2023-01-19T18:31:25.357Z,7.90
2023-01-19T18:33:53.543Z,7.97
2023-01-19T18:36:21.903Z,7.00
2023-01-19T18:38:50.301Z,7.57
2023-01-19T18:41:20.135Z,7.73
2023-01-19T18:43:49.159Z,8.23
2023-01-19T18:46:19.347Z,7.73
2023-01-19T18:48:53.078Z,7.57
2023-01-19T18:51:22.865Z,7.27
2023-01-19T18:53:51.116Z,7.30
2023-01-19T18:56:21.630Z,8.33
2023-01-19T18:58:49.805Z,7.50
2023-01-19T19:01:23.939Z,8.67
2023-01-19T19:03:54.520Z,8.60
2023-01-19T19:06:23.446Z,9.60
2023-01-19T19:08:52.865Z,8.37
2023-01-19T19:11:22.701Z,10.13
2023-01-19T19:13:53.939Z,10.30
2023-01-19T19:16:23.844Z,10.60
2023-01-19T19:18:52.636Z,12.27
2023-01-19T19:21:22.408Z,11.90
2023-01-19T19:23:52.231Z,11.10
2023-01-19T19:26:20.787Z,11.70
2023-01-19T19:28:49.051Z,11.97
2023-01-19T19:31:20.840Z,11.77
2023-01-19T19:33:51.271Z,10.93
2023-01-19T19:36:21.295Z,10.97
2023-01-19T19:38:49.518Z,11.70
2023-01-19T19:41:20.079Z,12.03
2023-01-19T19:43:48.698Z,11.17
2023-01-19T19:46:21.343Z,11.67
2023-01-19T19:48:54.042Z,11.90
2023-01-19T19:51:25.445Z,12.00
2023-01-19T19:53:54.743Z,12.23
2023-01-19T19:56:28.033Z,12.87
2023-01-19T19:58:59.044Z,13.10
2023-01-19T20:01:32.632Z,12.27
2023-01-19T20:04:08.158Z,12.43
2023-01-19T20:06:39.838Z,12.40
2023-01-19T20:09:10.227Z,12.77
2023-01-19T20:11:39.166Z,12.83
2023-01-19T20:14:12.019Z,11.93
2023-01-19T20:16:40.795Z,10.30
2023-01-19T20:19:10.871Z,11.40
2023-01-19T20:21:41.975Z,11.57
2023-01-19T20:24:15.020Z,12.40
2023-01-19T20:26:46.560Z,11.93
2023-01-19T20:29:16.268Z,11.50
2023-01-19T20:31:47.075Z,11.70
2023-01-19T20:34:19.275Z,12.07
2023-01-19T20:36:53.057Z,12.13
2023-01-19T20:39:22.625Z,10.93
2023-01-19T20:41:51.404Z,11.03
2023-01-19T20:44:22.341Z,10.50
2023-01-19T20:46:50.792Z,11.30
2023-01-19T20:49:41.981Z,12.30
2023-01-19T20:52:11.094Z,11.70
2023-01-19T20:54:41.210Z,11.80
2023-01-19T20:57:09.457Z,11.70
2023-01-19T20:59:40.834Z,12.23
2023-01-19T21:02:12.440Z,12.47
2023-01-19T21:04:42.570Z,13.47
2023-01-19T21:07:11.244Z,11.80
2023-01-19T21:09:39.735Z,11.60
2023-01-19T21:12:11.162Z,10.83
2023-01-19T21:14:40.065Z,11.20
2023-01-19T21:17:09.604Z,12.13
2023-01-19T21:19:38.196Z,11.07
2023-01-19T21:22:10.715Z,11.30
2023-01-19T21:24:43.688Z,12.03
2023-01-19T21:27:12.759Z,11.60
2023-01-19T21:29:42.022Z,11.97
2023-01-19T21:32:10.506Z,12.30
2023-01-19T21:34:38.664Z,11.40
2023-01-19T21:37:08.291Z,10.53
2023-01-19T21:39:38.550Z,11.20
2023-01-19T21:42:07.175Z,12.13
2023-01-19T21:44:36.395Z,11.20
2023-01-19T21:47:08.885Z,11.90
2023-01-19T21:49:37.738Z,11.70
2023-01-19T21:52:06.058Z,11.23
2023-01-19T21:54:35.666Z,10.70
2023-01-19T21:57:03.898Z,12.00
2023-01-19T21:59:34.546Z,9.90
2023-01-19T22:02:02.860Z,11.83
2023-01-19T22:04:31.229Z,10.53
2023-01-19T22:06:59.481Z,11.17
2023-01-19T22:09:27.315Z,10.73
2023-01-19T22:11:58.384Z,11.37
2023-01-19T22:14:26.553Z,10.10
2023-01-19T22:16:54.975Z,11.90
2023-01-19T22:19:23.523Z,11.00
2023-01-19T22:21:52.505Z,11.67
2023-01-19T22:24:20.649Z,11.03
2023-01-19T22:26:48.871Z,11.80
2023-01-19T22:29:20.642Z,10.90
2023-01-19T22:31:52.270Z,11.30
2023-01-19T22:34:20.622Z,11.30
2023-01-19T22:36:48.925Z,9.77
2023-01-19T22:39:17.513Z,12.40
2023-01-19T22:41:47.287Z,11.17
2023-01-19T22:44:17.901Z,10.90
2023-01-19T22:46:48.658Z,10.93
2023-01-19T22:49:19.535Z,10.57
2023-01-19T22:51:48.383Z,10.93
2023-01-19T22:54:16.826Z,11.67
2023-01-19T22:56:45.724Z,12.87
2023-01-19T22:59:17.101Z,11.97
2023-01-19T23:01:45.631Z,12.47
2023-01-19T23:04:18.546Z,12.40
2023-01-19T23:06:50.340Z,13.27
2023-01-19T23:09:21.063Z,11.63
2023-01-19T23:11:52.942Z,10.77
2023-01-19T23:14:23.525Z,11.80
2023-01-19T23:16:51.822Z,11.10
2023-01-19T23:19:21.061Z,11.97
2023-01-19T23:21:52.348Z,11.43
2023-01-19T23:24:22.318Z,11.37
2023-01-19T23:26:50.688Z,10.60
2023-01-19T23:29:19.642Z,11.17
2023-01-19T23:31:49.452Z,11.13
2023-01-19T23:34:18.034Z,12.13
2023-01-19T23:36:48.015Z,11.77
2023-01-19T23:39:17.994Z,12.30
2023-01-19T23:41:50.124Z,11.87
2023-01-19T23:44:21.292Z,11.53
2023-01-19T23:46:49.765Z,10.43
2023-01-19T23:49:18.230Z,11.80
2023-01-19T23:51:48.562Z,12.03
2023-01-19T23:54:16.699Z,10.83
2023-01-19T23:56:45.020Z,11.40
2023-01-19T23:59:14.602Z,11.20
